sensor_id;sensor_type;location;lat;lon;timestamp;P1;durP1;ratioP1;P2;durP2;ratioP2
70635;SDS011;58206;47.310;19.502;2022-09-27T00:01:15;37.95;;;20.90;;
70635;SDS011;58206;47.310;19.502;2022-09-27T00:04:00;39.00;;;21.50;;
70635;SDS011;58206;47.310;19.502;2022-09-27T00:06:45;35.75;;;20.08;;
70635;SDS011;58206;47.310;19.502;2022-09-27T00:09:29;35.72;;;19.88;;
70635;SDS011;58206;47.310;19.502;2022-09-27T00:12:13;36.80;;;19.97;;
70635;SDS011;58206;47.310;19.502;2022-09-27T00:14:58;34.80;;;19.95;;
70635;SDS011;58206;47.310;19.502;2022-09-27T00:17:43;37.90;;;20.10;;
70635;SDS011;58206;47.310;19.502;2022-09-27T00:20:28;35.00;;;18.98;;
70635;SDS011;58206;47.310;19.502;2022-09-27T00:23:12;33.97;;;18.33;;
70635;SDS011;58206;47.310;19.502;2022-09-27T00:25:57;33.73;;;18.23;;
70635;SDS011;58206;47.310;19.502;2022-09-27T00:28:42;39.08;;;17.92;;
70635;SDS011;58206;47.310;19.502;2022-09-27T00:31:27;33.28;;;18.52;;
70635;SDS011;58206;47.310;19.502;2022-09-27T00:34:19;33.50;;;19.30;;
70635;SDS011;58206;47.310;19.502;2022-09-27T00:37:04;34.97;;;18.33;;
70635;SDS011;58206;47.310;19.502;2022-09-27T00:39:49;35.43;;;18.63;;
70635;SDS011;58206;47.310;19.502;2022-09-27T00:42:33;31.40;;;18.42;;
70635;SDS011;58206;47.310;19.502;2022-09-27T00:45:17;33.88;;;17.80;;
70635;SDS011;58206;47.310;19.502;2022-09-27T00:48:03;31.55;;;17.65;;
70635;SDS011;58206;47.310;19.502;2022-09-27T00:50:49;33.88;;;17.40;;
70635;SDS011;58206;47.310;19.502;2022-09-27T00:53:41;32.07;;;17.73;;
70635;SDS011;58206;47.310;19.502;2022-09-27T00:56:29;32.30;;;17.40;;
70635;SDS011;58206;47.310;19.502;2022-09-27T01:02:18;32.92;;;17.05;;
70635;SDS011;58206;47.310;19.502;2022-09-27T01:05:04;29.98;;;16.80;;
70635;SDS011;58206;47.310;19.502;2022-09-27T01:07:49;29.43;;;16.33;;
70635;SDS011;58206;47.310;19.502;2022-09-27T01:10:35;29.40;;;16.20;;
70635;SDS011;58206;47.310;19.502;2022-09-27T01:13:27;30.33;;;16.67;;
70635;SDS011;58206;47.310;19.502;2022-09-27T01:16:35;31.63;;;16.98;;
70635;SDS011;58206;47.310;19.502;2022-09-27T01:22:16;32.57;;;16.33;;
70635;SDS011;58206;47.310;19.502;2022-09-27T01:28:23;31.55;;;16.17;;
70635;SDS011;58206;47.310;19.502;2022-09-27T01:43:24;29.27;;;16.35;;
70635;SDS011;58206;47.310;19.502;2022-09-27T01:46:10;30.98;;;15.80;;
70635;SDS011;58206;47.310;19.502;2022-09-27T01:49:24;29.88;;;16.02;;
70635;SDS011;58206;47.310;19.502;2022-09-27T01:52:10;33.77;;;18.27;;
70635;SDS011;58206;47.310;19.502;2022-09-27T01:54:57;32.70;;;18.25;;
70635;SDS011;58206;47.310;19.502;2022-09-27T01:58:20;34.72;;;18.58;;
70635;SDS011;58206;47.310;19.502;2022-09-27T02:01:08;34.90;;;19.00;;
70635;SDS011;58206;47.310;19.502;2022-09-27T02:03:53;37.05;;;18.83;;
70635;SDS011;58206;47.310;19.502;2022-09-27T02:07:07;65.60;;;20.10;;
70635;SDS011;58206;47.310;19.502;2022-09-27T02:09:57;39.10;;;19.17;;
70635;SDS011;58206;47.310;19.502;2022-09-27T02:13:35;44.78;;;19.38;;
70635;SDS011;58206;47.310;19.502;2022-09-27T02:16:05;55.90;;;19.80;;
70635;SDS011;58206;47.310;19.502;2022-09-27T02:24:52;51.72;;;18.20;;
70635;SDS011;58206;47.310;19.502;2022-09-27T02:27:39;41.30;;;18.95;;
70635;SDS011;58206;47.310;19.502;2022-09-27T02:30:30;43.33;;;17.58;;
70635;SDS011;58206;47.310;19.502;2022-09-27T02:34:07;38.13;;;18.45;;
70635;SDS011;58206;47.310;19.502;2022-09-27T02:36:25;38.77;;;18.60;;
70635;SDS011;58206;47.310;19.502;2022-09-27T02:39:10;39.28;;;19.10;;
70635;SDS011;58206;47.310;19.502;2022-09-27T02:41:55;33.80;;;18.08;;
70635;SDS011;58206;47.310;19.502;2022-09-27T02:44:41;32.60;;;18.13;;
70635;SDS011;58206;47.310;19.502;2022-09-27T02:50:29;31.87;;;17.83;;
70635;SDS011;58206;47.310;19.502;2022-09-27T03:06:10;47.63;;;18.47;;
70635;SDS011;58206;47.310;19.502;2022-09-27T03:08:56;54.17;;;17.80;;
70635;SDS011;58206;47.310;19.502;2022-09-27T03:11:40;73.35;;;19.55;;
70635;SDS011;58206;47.310;19.502;2022-09-27T03:14:24;47.47;;;17.38;;
70635;SDS011;58206;47.310;19.502;2022-09-27T03:17:21;61.53;;;18.48;;
70635;SDS011;58206;47.310;19.502;2022-09-27T03:20:29;74.00;;;20.90;;
70635;SDS011;58206;47.310;19.502;2022-09-27T03:23:28;68.57;;;19.42;;
70635;SDS011;58206;47.310;19.502;2022-09-27T03:26:13;50.33;;;16.90;;
70635;SDS011;58206;47.310;19.502;2022-09-27T03:28:57;46.92;;;16.55;;
70635;SDS011;58206;47.310;19.502;2022-09-27T03:31:42;45.85;;;15.15;;
70635;SDS011;58206;47.310;19.502;2022-09-27T03:34:44;39.47;;;14.10;;
70635;SDS011;58206;47.310;19.502;2022-09-27T03:37:28;39.50;;;14.73;;
70635;SDS011;58206;47.310;19.502;2022-09-27T03:40:12;46.92;;;14.85;;
70635;SDS011;58206;47.310;19.502;2022-09-27T03:42:57;54.13;;;15.30;;
70635;SDS011;58206;47.310;19.502;2022-09-27T03:45:42;46.05;;;14.65;;
70635;SDS011;58206;47.310;19.502;2022-09-27T03:48:28;69.93;;;15.87;;
70635;SDS011;58206;47.310;19.502;2022-09-27T03:51:14;49.92;;;15.48;;
70635;SDS011;58206;47.310;19.502;2022-09-27T03:53:58;46.85;;;13.93;;
70635;SDS011;58206;47.310;19.502;2022-09-27T03:56:43;49.22;;;14.40;;
70635;SDS011;58206;47.310;19.502;2022-09-27T03:59:28;46.15;;;14.25;;
70635;SDS011;58206;47.310;19.502;2022-09-27T04:02:33;45.50;;;13.80;;
70635;SDS011;58206;47.310;19.502;2022-09-27T04:05:36;38.05;;;13.77;;
70635;SDS011;58206;47.310;19.502;2022-09-27T04:08:24;36.53;;;13.02;;
70635;SDS011;58206;47.310;19.502;2022-09-27T04:11:09;47.45;;;14.98;;
70635;SDS011;58206;47.310;19.502;2022-09-27T04:13:55;37.45;;;14.48;;
70635;SDS011;58206;47.310;19.502;2022-09-27T04:16:40;29.93;;;13.67;;
70635;SDS011;58206;47.310;19.502;2022-09-27T04:20:00;33.95;;;12.90;;
70635;SDS011;58206;47.310;19.502;2022-09-27T04:22:47;45.05;;;14.52;;
70635;SDS011;58206;47.310;19.502;2022-09-27T04:25:31;38.88;;;13.85;;
70635;SDS011;58206;47.310;19.502;2022-09-27T04:28:26;29.30;;;14.18;;
70635;SDS011;58206;47.310;19.502;2022-09-27T04:31:13;47.87;;;13.73;;
70635;SDS011;58206;47.310;19.502;2022-09-27T04:34:09;44.67;;;14.18;;
70635;SDS011;58206;47.310;19.502;2022-09-27T04:36:55;42.78;;;13.38;;
70635;SDS011;58206;47.310;19.502;2022-09-27T04:39:46;36.75;;;13.45;;
70635;SDS011;58206;47.310;19.502;2022-09-27T04:42:31;34.20;;;13.13;;
70635;SDS011;58206;47.310;19.502;2022-09-27T04:45:17;33.67;;;12.93;;
70635;SDS011;58206;47.310;19.502;2022-09-27T04:48:02;33.35;;;13.82;;
70635;SDS011;58206;47.310;19.502;2022-09-27T04:50:46;42.15;;;14.85;;
70635;SDS011;58206;47.310;19.502;2022-09-27T04:53:31;38.42;;;13.15;;
70635;SDS011;58206;47.310;19.502;2022-09-27T04:56:16;66.43;;;15.77;;
70635;SDS011;58206;47.310;19.502;2022-09-27T04:59:02;47.37;;;14.57;;
70635;SDS011;58206;47.310;19.502;2022-09-27T05:01:47;45.03;;;15.05;;
70635;SDS011;58206;47.310;19.502;2022-09-27T05:04:52;50.67;;;14.80;;
70635;SDS011;58206;47.310;19.502;2022-09-27T05:07:39;59.85;;;15.65;;
70635;SDS011;58206;47.310;19.502;2022-09-27T05:10:30;59.10;;;16.55;;
70635;SDS011;58206;47.310;19.502;2022-09-27T05:13:15;48.47;;;14.80;;
70635;SDS011;58206;47.310;19.502;2022-09-27T05:16:03;44.40;;;14.80;;
70635;SDS011;58206;47.310;19.502;2022-09-27T05:19:12;47.17;;;15.00;;
70635;SDS011;58206;47.310;19.502;2022-09-27T05:22:16;40.17;;;15.23;;
70635;SDS011;58206;47.310;19.502;2022-09-27T05:25:01;75.07;;;17.20;;
70635;SDS011;58206;47.310;19.502;2022-09-27T05:27:46;36.43;;;14.07;;
70635;SDS011;58206;47.310;19.502;2022-09-27T05:30:31;32.95;;;13.52;;
70635;SDS011;58206;47.310;19.502;2022-09-27T05:33:29;31.85;;;13.48;;
70635;SDS011;58206;47.310;19.502;2022-09-27T05:36:52;30.70;;;14.90;;
70635;SDS011;58206;47.310;19.502;2022-09-27T05:39:37;31.73;;;14.88;;
70635;SDS011;58206;47.310;19.502;2022-09-27T05:42:21;25.80;;;14.67;;
70635;SDS011;58206;47.310;19.502;2022-09-27T05:45:07;31.83;;;16.05;;
70635;SDS011;58206;47.310;19.502;2022-09-27T05:47:56;30.95;;;16.23;;
70635;SDS011;58206;47.310;19.502;2022-09-27T05:50:41;28.52;;;15.35;;
70635;SDS011;58206;47.310;19.502;2022-09-27T05:53:27;30.33;;;15.85;;
70635;SDS011;58206;47.310;19.502;2022-09-27T05:56:12;29.27;;;17.30;;
70635;SDS011;58206;47.310;19.502;2022-09-27T05:59:22;34.85;;;18.85;;
70635;SDS011;58206;47.310;19.502;2022-09-27T06:02:37;36.45;;;19.55;;
70635;SDS011;58206;47.310;19.502;2022-09-27T06:06:00;32.33;;;18.73;;
70635;SDS011;58206;47.310;19.502;2022-09-27T06:09:02;33.65;;;20.25;;
70635;SDS011;58206;47.310;19.502;2022-09-27T06:11:47;31.60;;;20.03;;
70635;SDS011;58206;47.310;19.502;2022-09-27T06:14:33;33.92;;;22.13;;
70635;SDS011;58206;47.310;19.502;2022-09-27T06:17:25;26.50;;;16.83;;
70635;SDS011;58206;47.310;19.502;2022-09-27T06:20:10;28.83;;;16.58;;
70635;SDS011;58206;47.310;19.502;2022-09-27T06:23:01;29.67;;;16.58;;
70635;SDS011;58206;47.310;19.502;2022-09-27T06:25:46;28.23;;;17.33;;
70635;SDS011;58206;47.310;19.502;2022-09-27T06:28:36;31.55;;;19.30;;
70635;SDS011;58206;47.310;19.502;2022-09-27T06:31:26;38.50;;;23.48;;
70635;SDS011;58206;47.310;19.502;2022-09-27T06:34:19;36.05;;;22.42;;
70635;SDS011;58206;47.310;19.502;2022-09-27T06:37:04;30.05;;;18.83;;
70635;SDS011;58206;47.310;19.502;2022-09-27T06:39:49;30.37;;;17.37;;
70635;SDS011;58206;47.310;19.502;2022-09-27T06:43:05;28.83;;;17.17;;
70635;SDS011;58206;47.310;19.502;2022-09-27T06:46:23;31.20;;;17.33;;
70635;SDS011;58206;47.310;19.502;2022-09-27T06:49:16;34.33;;;19.55;;
70635;SDS011;58206;47.310;19.502;2022-09-27T06:52:01;37.05;;;19.45;;
70635;SDS011;58206;47.310;19.502;2022-09-27T06:54:45;51.70;;;26.03;;
70635;SDS011;58206;47.310;19.502;2022-09-27T06:57:33;35.35;;;19.13;;
70635;SDS011;58206;47.310;19.502;2022-09-27T07:00:36;33.22;;;18.33;;
70635;SDS011;58206;47.310;19.502;2022-09-27T07:03:50;29.95;;;16.67;;
70635;SDS011;58206;47.310;19.502;2022-09-27T07:06:55;27.95;;;16.15;;
70635;SDS011;58206;47.310;19.502;2022-09-27T07:09:42;27.17;;;15.50;;
70635;SDS011;58206;47.310;19.502;2022-09-27T07:12:26;26.60;;;14.75;;
70635;SDS011;58206;47.310;19.502;2022-09-27T07:15:11;29.40;;;15.65;;
70635;SDS011;58206;47.310;19.502;2022-09-27T07:17:57;27.75;;;15.00;;
70635;SDS011;58206;47.310;19.502;2022-09-27T07:20:45;34.40;;;18.73;;
70635;SDS011;58206;47.310;19.502;2022-09-27T07:23:30;31.33;;;16.70;;
70635;SDS011;58206;47.310;19.502;2022-09-27T07:26:15;30.35;;;16.17;;
70635;SDS011;58206;47.310;19.502;2022-09-27T07:29:00;30.27;;;16.25;;
70635;SDS011;58206;47.310;19.502;2022-09-27T07:31:46;29.02;;;15.77;;
70635;SDS011;58206;47.310;19.502;2022-09-27T07:34:32;29.50;;;15.98;;
70635;SDS011;58206;47.310;19.502;2022-09-27T07:37:18;30.57;;;17.00;;
70635;SDS011;58206;47.310;19.502;2022-09-27T07:40:05;26.85;;;16.00;;
70635;SDS011;58206;47.310;19.502;2022-09-27T07:42:54;31.08;;;16.95;;
70635;SDS011;58206;47.310;19.502;2022-09-27T07:45:40;30.02;;;15.85;;
70635;SDS011;58206;47.310;19.502;2022-09-27T07:48:42;28.83;;;17.02;;
70635;SDS011;58206;47.310;19.502;2022-09-27T07:51:31;29.50;;;16.90;;
70635;SDS011;58206;47.310;19.502;2022-09-27T07:54:26;28.85;;;16.83;;
70635;SDS011;58206;47.310;19.502;2022-09-27T07:57:29;32.05;;;17.17;;
70635;SDS011;58206;47.310;19.502;2022-09-27T08:00:16;30.05;;;17.10;;
70635;SDS011;58206;47.310;19.502;2022-09-27T08:03:04;30.02;;;16.70;;
70635;SDS011;58206;47.310;19.502;2022-09-27T08:05:50;34.23;;;17.57;;
70635;SDS011;58206;47.310;19.502;2022-09-27T08:08:34;34.13;;;18.67;;
70635;SDS011;58206;47.310;19.502;2022-09-27T08:11:21;31.40;;;17.02;;
70635;SDS011;58206;47.310;19.502;2022-09-27T08:14:08;29.55;;;16.60;;
70635;SDS011;58206;47.310;19.502;2022-09-27T08:16:55;31.13;;;17.60;;
70635;SDS011;58206;47.310;19.502;2022-09-27T08:19:45;31.53;;;17.83;;
70635;SDS011;58206;47.310;19.502;2022-09-27T08:22:47;31.10;;;17.10;;
70635;SDS011;58206;47.310;19.502;2022-09-27T08:25:52;31.25;;;17.02;;
70635;SDS011;58206;47.310;19.502;2022-09-27T08:28:46;30.70;;;16.35;;
70635;SDS011;58206;47.310;19.502;2022-09-27T08:31:36;29.23;;;15.52;;
70635;SDS011;58206;47.310;19.502;2022-09-27T08:34:24;29.60;;;15.53;;
70635;SDS011;58206;47.310;19.502;2022-09-27T08:37:09;27.05;;;15.70;;
70635;SDS011;58206;47.310;19.502;2022-09-27T08:39:55;26.77;;;15.68;;
70635;SDS011;58206;47.310;19.502;2022-09-27T08:42:48;27.73;;;15.85;;
70635;SDS011;58206;47.310;19.502;2022-09-27T08:45:40;26.10;;;15.05;;
70635;SDS011;58206;47.310;19.502;2022-09-27T08:48:26;28.33;;;15.73;;
70635;SDS011;58206;47.310;19.502;2022-09-27T08:51:12;29.05;;;16.20;;
70635;SDS011;58206;47.310;19.502;2022-09-27T08:54:10;29.48;;;16.52;;
70635;SDS011;58206;47.310;19.502;2022-09-27T08:57:03;34.72;;;17.00;;
70635;SDS011;58206;47.310;19.502;2022-09-27T09:02:33;32.70;;;16.77;;
70635;SDS011;58206;47.310;19.502;2022-09-27T09:05:27;34.47;;;17.05;;
70635;SDS011;58206;47.310;19.502;2022-09-27T09:20:49;32.80;;;16.17;;
70635;SDS011;58206;47.310;19.502;2022-09-27T09:34:59;31.48;;;15.35;;
70635;SDS011;58206;47.310;19.502;2022-09-27T09:37:49;28.98;;;15.85;;
70635;SDS011;58206;47.310;19.502;2022-09-27T09:43:38;30.95;;;16.17;;
70635;SDS011;58206;47.310;19.502;2022-09-27T09:46:28;30.63;;;15.90;;
70635;SDS011;58206;47.310;19.502;2022-09-27T09:49:23;29.08;;;15.75;;
70635;SDS011;58206;47.310;19.502;2022-09-27T09:52:13;31.80;;;15.77;;
70635;SDS011;58206;47.310;19.502;2022-09-27T09:55:06;29.50;;;15.88;;
70635;SDS011;58206;47.310;19.502;2022-09-27T10:00:44;29.23;;;15.57;;
70635;SDS011;58206;47.310;19.502;2022-09-27T10:03:31;31.23;;;16.02;;
70635;SDS011;58206;47.310;19.502;2022-09-27T10:06:16;29.92;;;16.02;;
70635;SDS011;58206;47.310;19.502;2022-09-27T10:09:01;29.15;;;16.02;;
70635;SDS011;58206;47.310;19.502;2022-09-27T10:11:57;31.35;;;16.45;;
70635;SDS011;58206;47.310;19.502;2022-09-27T10:14:47;31.23;;;16.37;;
70635;SDS011;58206;47.310;19.502;2022-09-27T10:17:36;31.65;;;15.85;;
70635;SDS011;58206;47.310;19.502;2022-09-27T10:23:10;29.08;;;15.85;;
70635;SDS011;58206;47.310;19.502;2022-09-27T10:26:17;31.85;;;16.00;;
70635;SDS011;58206;47.310;19.502;2022-09-27T10:29:13;34.03;;;17.47;;
70635;SDS011;58206;47.310;19.502;2022-09-27T10:32:01;34.60;;;16.88;;
70635;SDS011;58206;47.310;19.502;2022-09-27T10:34:54;34.13;;;16.65;;
70635;SDS011;58206;47.310;19.502;2022-09-27T10:37:41;31.65;;;16.25;;
70635;SDS011;58206;47.310;19.502;2022-09-27T10:40:32;29.35;;;15.48;;
70635;SDS011;58206;47.310;19.502;2022-09-27T10:43:27;28.70;;;15.30;;
70635;SDS011;58206;47.310;19.502;2022-09-27T10:52:04;31.50;;;17.50;;
70635;SDS011;58206;47.310;19.502;2022-09-27T10:54:56;27.70;;;15.93;;
70635;SDS011;58206;47.310;19.502;2022-09-27T10:57:46;25.37;;;14.60;;
70635;SDS011;58206;47.310;19.502;2022-09-27T11:00:33;24.60;;;13.52;;
70635;SDS011;58206;47.310;19.502;2022-09-27T11:03:19;24.20;;;13.88;;
70635;SDS011;58206;47.310;19.502;2022-09-27T11:06:49;23.20;;;13.68;;
70635;SDS011;58206;47.310;19.502;2022-09-27T11:09:17;22.95;;;13.45;;
70635;SDS011;58206;47.310;19.502;2022-09-27T11:12:12;24.33;;;13.67;;
70635;SDS011;58206;47.310;19.502;2022-09-27T11:14:58;22.75;;;12.70;;
70635;SDS011;58206;47.310;19.502;2022-09-27T11:20:38;21.48;;;12.27;;
70635;SDS011;58206;47.310;19.502;2022-09-27T11:29:23;20.38;;;12.05;;
70635;SDS011;58206;47.310;19.502;2022-09-27T11:35:52;21.55;;;12.35;;
70635;SDS011;58206;47.310;19.502;2022-09-27T11:41:39;18.73;;;11.53;;
70635;SDS011;58206;47.310;19.502;2022-09-27T11:47:16;14.63;;;9.27;;
70635;SDS011;58206;47.310;19.502;2022-09-27T11:50:13;14.40;;;8.77;;
70635;SDS011;58206;47.310;19.502;2022-09-27T11:59:11;17.48;;;10.50;;
70635;SDS011;58206;47.310;19.502;2022-09-27T12:05:04;17.23;;;10.73;;
70635;SDS011;58206;47.310;19.502;2022-09-27T12:10:52;18.93;;;10.13;;
70635;SDS011;58206;47.310;19.502;2022-09-27T12:13:48;14.15;;;8.23;;
70635;SDS011;58206;47.310;19.502;2022-09-27T12:16:34;15.45;;;8.60;;
70635;SDS011;58206;47.310;19.502;2022-09-27T12:19:31;14.98;;;9.43;;
70635;SDS011;58206;47.310;19.502;2022-09-27T12:22:33;13.07;;;7.53;;
70635;SDS011;58206;47.310;19.502;2022-09-27T12:25:18;13.03;;;7.80;;
70635;SDS011;58206;47.310;19.502;2022-09-27T12:31:20;12.20;;;7.05;;
70635;SDS011;58206;47.310;19.502;2022-09-27T12:34:10;12.90;;;7.45;;
70635;SDS011;58206;47.310;19.502;2022-09-27T12:42:44;11.23;;;6.88;;
70635;SDS011;58206;47.310;19.502;2022-09-27T12:48:27;13.35;;;7.97;;
70635;SDS011;58206;47.310;19.502;2022-09-27T12:51:16;12.43;;;6.95;;
70635;SDS011;58206;47.310;19.502;2022-09-27T12:56:56;12.43;;;7.38;;
70635;SDS011;58206;47.310;19.502;2022-09-27T13:09:20;13.30;;;7.60;;
70635;SDS011;58206;47.310;19.502;2022-09-27T13:12:24;12.18;;;7.47;;
70635;SDS011;58206;47.310;19.502;2022-09-27T13:15:14;12.85;;;7.60;;
70635;SDS011;58206;47.310;19.502;2022-09-27T13:18:05;12.75;;;7.78;;
70635;SDS011;58206;47.310;19.502;2022-09-27T13:20:57;12.45;;;7.47;;
70635;SDS011;58206;47.310;19.502;2022-09-27T13:24:00;10.73;;;6.90;;
70635;SDS011;58206;47.310;19.502;2022-09-27T13:27:00;13.05;;;6.97;;
70635;SDS011;58206;47.310;19.502;2022-09-27T13:29:45;12.13;;;7.82;;
70635;SDS011;58206;47.310;19.502;2022-09-27T13:32:31;12.88;;;8.10;;
70635;SDS011;58206;47.310;19.502;2022-09-27T13:35:22;15.48;;;7.68;;
70635;SDS011;58206;47.310;19.502;2022-09-27T13:38:20;13.70;;;7.40;;
70635;SDS011;58206;47.310;19.502;2022-09-27T13:41:16;15.00;;;7.47;;
70635;SDS011;58206;47.310;19.502;2022-09-27T13:47:24;11.82;;;7.13;;
70635;SDS011;58206;47.310;19.502;2022-09-27T13:53:11;11.27;;;6.10;;
70635;SDS011;58206;47.310;19.502;2022-09-27T13:59:22;13.10;;;6.50;;
70635;SDS011;58206;47.310;19.502;2022-09-27T14:02:35;11.10;;;6.60;;
70635;SDS011;58206;47.310;19.502;2022-09-27T14:05:24;11.38;;;6.82;;
70635;SDS011;58206;47.310;19.502;2022-09-27T14:11:30;12.23;;;6.95;;
70635;SDS011;58206;47.310;19.502;2022-09-27T14:14:18;12.27;;;6.93;;
70635;SDS011;58206;47.310;19.502;2022-09-27T14:17:10;13.15;;;7.85;;
70635;SDS011;58206;47.310;19.502;2022-09-27T14:19:56;11.23;;;7.07;;
70635;SDS011;58206;47.310;19.502;2022-09-27T14:22:41;12.73;;;7.83;;
70635;SDS011;58206;47.310;19.502;2022-09-27T14:25:27;13.30;;;7.28;;
70635;SDS011;58206;47.310;19.502;2022-09-27T14:28:21;20.20;;;12.00;;
70635;SDS011;58206;47.310;19.502;2022-09-27T14:31:15;14.68;;;8.05;;
70635;SDS011;58206;47.310;19.502;2022-09-27T14:34:21;13.63;;;8.27;;
70635;SDS011;58206;47.310;19.502;2022-09-27T14:37:17;13.83;;;8.80;;
70635;SDS011;58206;47.310;19.502;2022-09-27T14:40:19;26.80;;;13.77;;
70635;SDS011;58206;47.310;19.502;2022-09-27T14:43:04;35.53;;;19.33;;
70635;SDS011;58206;47.310;19.502;2022-09-27T14:45:50;41.90;;;21.48;;
70635;SDS011;58206;47.310;19.502;2022-09-27T14:48:36;38.13;;;21.25;;
70635;SDS011;58206;47.310;19.502;2022-09-27T14:51:29;35.73;;;20.33;;
70635;SDS011;58206;47.310;19.502;2022-09-27T14:54:18;32.85;;;18.15;;
70635;SDS011;58206;47.310;19.502;2022-09-27T14:57:03;24.33;;;14.25;;
70635;SDS011;58206;47.310;19.502;2022-09-27T14:59:50;15.73;;;10.15;;
70635;SDS011;58206;47.310;19.502;2022-09-27T15:02:34;17.00;;;9.95;;
70635;SDS011;58206;47.310;19.502;2022-09-27T15:05:22;15.33;;;9.63;;
70635;SDS011;58206;47.310;19.502;2022-09-27T15:08:08;20.65;;;13.75;;
70635;SDS011;58206;47.310;19.502;2022-09-27T15:10:54;18.55;;;11.13;;
70635;SDS011;58206;47.310;19.502;2022-09-27T15:13:39;15.80;;;10.68;;
70635;SDS011;58206;47.310;19.502;2022-09-27T15:16:25;14.35;;;9.15;;
70635;SDS011;58206;47.310;19.502;2022-09-27T15:19:14;32.13;;;16.87;;
70635;SDS011;58206;47.310;19.502;2022-09-27T15:25:14;12.88;;;5.80;;
70635;SDS011;58206;47.310;19.502;2022-09-27T15:28:02;20.80;;;11.52;;
70635;SDS011;58206;47.310;19.502;2022-09-27T15:30:52;13.30;;;7.38;;
70635;SDS011;58206;47.310;19.502;2022-09-27T15:33:38;35.90;;;27.70;;
70635;SDS011;58206;47.310;19.502;2022-09-27T15:36:48;11.32;;;6.80;;
70635;SDS011;58206;47.310;19.502;2022-09-27T15:42:18;6.22;;;2.90;;
70635;SDS011;58206;47.310;19.502;2022-09-27T15:45:07;5.60;;;2.45;;
70635;SDS011;58206;47.310;19.502;2022-09-27T15:50:51;6.90;;;2.45;;
70635;SDS011;58206;47.310;19.502;2022-09-27T15:56:20;7.25;;;2.42;;
70635;SDS011;58206;47.310;19.502;2022-09-27T15:59:05;9.70;;;4.28;;
70635;SDS011;58206;47.310;19.502;2022-09-27T16:01:53;9.53;;;4.30;;
70635;SDS011;58206;47.310;19.502;2022-09-27T16:04:38;10.65;;;5.60;;
70635;SDS011;58206;47.310;19.502;2022-09-27T16:07:22;5.78;;;2.40;;
70635;SDS011;58206;47.310;19.502;2022-09-27T16:10:14;5.35;;;2.15;;
70635;SDS011;58206;47.310;19.502;2022-09-27T16:12:59;5.15;;;2.33;;
70635;SDS011;58206;47.310;19.502;2022-09-27T16:15:44;6.80;;;3.07;;
70635;SDS011;58206;47.310;19.502;2022-09-27T16:18:28;5.50;;;2.53;;
70635;SDS011;58206;47.310;19.502;2022-09-27T16:21:13;7.93;;;3.90;;
70635;SDS011;58206;47.310;19.502;2022-09-27T16:23:57;9.00;;;4.85;;
70635;SDS011;58206;47.310;19.502;2022-09-27T16:26:42;9.43;;;5.43;;
70635;SDS011;58206;47.310;19.502;2022-09-27T16:29:26;23.13;;;12.43;;
70635;SDS011;58206;47.310;19.502;2022-09-27T16:32:10;17.33;;;10.30;;
70635;SDS011;58206;47.310;19.502;2022-09-27T16:34:55;11.80;;;5.70;;
70635;SDS011;58206;47.310;19.502;2022-09-27T16:37:40;14.48;;;7.80;;
70635;SDS011;58206;47.310;19.502;2022-09-27T16:40:27;26.55;;;16.83;;
70635;SDS011;58206;47.310;19.502;2022-09-27T16:43:11;20.90;;;14.30;;
70635;SDS011;58206;47.310;19.502;2022-09-27T16:46:02;23.33;;;16.30;;
70635;SDS011;58206;47.310;19.502;2022-09-27T16:48:46;29.85;;;21.27;;
70635;SDS011;58206;47.310;19.502;2022-09-27T16:51:31;71.88;;;35.45;;
70635;SDS011;58206;47.310;19.502;2022-09-27T16:54:34;67.80;;;31.70;;
70635;SDS011;58206;47.310;19.502;2022-09-27T16:57:18;45.40;;;24.33;;
70635;SDS011;58206;47.310;19.502;2022-09-27T17:00:03;39.67;;;24.23;;
70635;SDS011;58206;47.310;19.502;2022-09-27T17:02:48;33.72;;;21.00;;
70635;SDS011;58206;47.310;19.502;2022-09-27T17:05:32;21.38;;;12.80;;
70635;SDS011;58206;47.310;19.502;2022-09-27T17:08:16;14.77;;;8.10;;
70635;SDS011;58206;47.310;19.502;2022-09-27T17:11:01;10.83;;;5.70;;
70635;SDS011;58206;47.310;19.502;2022-09-27T17:13:45;8.95;;;5.47;;
70635;SDS011;58206;47.310;19.502;2022-09-27T17:16:30;14.00;;;8.73;;
70635;SDS011;58206;47.310;19.502;2022-09-27T17:19:15;8.75;;;5.00;;
70635;SDS011;58206;47.310;19.502;2022-09-27T17:22:01;11.68;;;6.63;;
70635;SDS011;58206;47.310;19.502;2022-09-27T17:24:46;18.50;;;9.53;;
70635;SDS011;58206;47.310;19.502;2022-09-27T17:27:31;14.20;;;6.90;;
70635;SDS011;58206;47.310;19.502;2022-09-27T17:30:15;11.85;;;6.00;;
70635;SDS011;58206;47.310;19.502;2022-09-27T17:32:59;11.80;;;4.88;;
70635;SDS011;58206;47.310;19.502;2022-09-27T17:35:44;10.40;;;5.38;;
70635;SDS011;58206;47.310;19.502;2022-09-27T17:38:29;9.53;;;5.10;;
70635;SDS011;58206;47.310;19.502;2022-09-27T17:41:15;11.48;;;5.35;;
70635;SDS011;58206;47.310;19.502;2022-09-27T17:43:59;8.00;;;4.28;;
70635;SDS011;58206;47.310;19.502;2022-09-27T17:46:44;8.73;;;4.38;;
70635;SDS011;58206;47.310;19.502;2022-09-27T17:49:29;8.98;;;4.22;;
70635;SDS011;58206;47.310;19.502;2022-09-27T17:52:32;8.70;;;4.83;;
70635;SDS011;58206;47.310;19.502;2022-09-27T17:55:17;12.98;;;6.65;;
70635;SDS011;58206;47.310;19.502;2022-09-27T17:58:01;12.95;;;7.10;;
70635;SDS011;58206;47.310;19.502;2022-09-27T18:00:47;14.30;;;7.20;;
70635;SDS011;58206;47.310;19.502;2022-09-27T18:03:34;11.70;;;6.10;;
70635;SDS011;58206;47.310;19.502;2022-09-27T18:06:19;10.40;;;5.77;;
70635;SDS011;58206;47.310;19.502;2022-09-27T18:09:04;13.13;;;5.78;;
70635;SDS011;58206;47.310;19.502;2022-09-27T18:11:49;11.68;;;6.00;;
70635;SDS011;58206;47.310;19.502;2022-09-27T18:14:34;9.80;;;5.32;;
70635;SDS011;58206;47.310;19.502;2022-09-27T18:17:19;10.10;;;4.70;;
70635;SDS011;58206;47.310;19.502;2022-09-27T18:20:04;9.20;;;4.30;;
70635;SDS011;58206;47.310;19.502;2022-09-27T18:22:48;8.30;;;4.03;;
70635;SDS011;58206;47.310;19.502;2022-09-27T18:25:33;8.52;;;4.07;;
70635;SDS011;58206;47.310;19.502;2022-09-27T18:28:26;7.80;;;3.90;;
70635;SDS011;58206;47.310;19.502;2022-09-27T18:31:15;8.20;;;4.50;;
70635;SDS011;58206;47.310;19.502;2022-09-27T18:34:00;8.67;;;4.50;;
70635;SDS011;58206;47.310;19.502;2022-09-27T18:36:46;12.93;;;7.15;;
70635;SDS011;58206;47.310;19.502;2022-09-27T18:39:30;11.32;;;6.38;;
70635;SDS011;58206;47.310;19.502;2022-09-27T18:42:14;10.18;;;4.80;;
70635;SDS011;58206;47.310;19.502;2022-09-27T18:44:59;9.07;;;5.00;;
70635;SDS011;58206;47.310;19.502;2022-09-27T18:47:43;8.57;;;4.63;;
70635;SDS011;58206;47.310;19.502;2022-09-27T18:50:27;12.90;;;4.70;;
70635;SDS011;58206;47.310;19.502;2022-09-27T18:53:12;11.90;;;5.65;;
70635;SDS011;58206;47.310;19.502;2022-09-27T18:55:56;11.10;;;4.90;;
70635;SDS011;58206;47.310;19.502;2022-09-27T18:58:45;9.48;;;4.38;;
70635;SDS011;58206;47.310;19.502;2022-09-27T19:01:29;9.40;;;4.30;;
70635;SDS011;58206;47.310;19.502;2022-09-27T19:04:15;7.68;;;3.70;;
70635;SDS011;58206;47.310;19.502;2022-09-27T19:06:59;7.10;;;3.47;;